sensor_id;sensor_type;location;lat;lon;timestamp;P1;durP1;ratioP1;P2;durP2;ratioP2
2326;SDS011;1174;51.588;7.328;2023-02-19T00:01:05;16.53;;;8.20;;
2326;SDS011;1174;51.588;7.328;2023-02-19T00:03:33;11.30;;;7.53;;
2326;SDS011;1174;51.588;7.328;2023-02-19T00:06:01;14.63;;;7.83;;
2326;SDS011;1174;51.588;7.328;2023-02-19T00:08:29;13.90;;;10.00;;
2326;SDS011;1174;51.588;7.328;2023-02-19T00:10:59;21.67;;;10.10;;
2326;SDS011;1174;51.588;7.328;2023-02-19T00:13:27;45.23;;;12.47;;
2326;SDS011;1174;51.588;7.328;2023-02-19T00:15:58;16.23;;;7.50;;
2326;SDS011;1174;51.588;7.328;2023-02-19T00:18:31;23.73;;;12.50;;
2326;SDS011;1174;51.588;7.328;2023-02-19T00:20:58;23.57;;;12.40;;
2326;SDS011;1174;51.588;7.328;2023-02-19T00:23:25;21.13;;;11.77;;
2326;SDS011;1174;51.588;7.328;2023-02-19T00:25:52;21.80;;;10.30;;
2326;SDS011;1174;51.588;7.328;2023-02-19T00:28:19;23.27;;;12.33;;
2326;SDS011;1174;51.588;7.328;2023-02-19T00:30:46;16.67;;;8.57;;
2326;SDS011;1174;51.588;7.328;2023-02-19T00:33:15;24.30;;;11.33;;
2326;SDS011;1174;51.588;7.328;2023-02-19T00:35:44;13.77;;;7.50;;
2326;SDS011;1174;51.588;7.328;2023-02-19T00:38:11;24.67;;;11.63;;
2326;SDS011;1174;51.588;7.328;2023-02-19T00:40:38;28.70;;;11.70;;
2326;SDS011;1174;51.588;7.328;2023-02-19T00:43:05;26.83;;;9.60;;
2326;SDS011;1174;51.588;7.328;2023-02-19T00:45:32;28.00;;;11.83;;
2326;SDS011;1174;51.588;7.328;2023-02-19T00:48:00;20.77;;;10.93;;
2326;SDS011;1174;51.588;7.328;2023-02-19T00:50:28;32.57;;;10.90;;
2326;SDS011;1174;51.588;7.328;2023-02-19T00:52:55;24.83;;;13.83;;
2326;SDS011;1174;51.588;7.328;2023-02-19T00:55:22;23.10;;;10.57;;
2326;SDS011;1174;51.588;7.328;2023-02-19T00:57:49;16.67;;;7.70;;
2326;SDS011;1174;51.588;7.328;2023-02-19T01:00:16;21.37;;;11.70;;
2326;SDS011;1174;51.588;7.328;2023-02-19T01:02:43;18.57;;;11.47;;
2326;SDS011;1174;51.588;7.328;2023-02-19T01:05:10;20.47;;;10.33;;
2326;SDS011;1174;51.588;7.328;2023-02-19T01:07:38;15.00;;;6.80;;
2326;SDS011;1174;51.588;7.328;2023-02-19T01:10:05;14.23;;;8.03;;
2326;SDS011;1174;51.588;7.328;2023-02-19T01:12:32;15.80;;;11.10;;
2326;SDS011;1174;51.588;7.328;2023-02-19T01:14:59;18.90;;;10.90;;
2326;SDS011;1174;51.588;7.328;2023-02-19T01:17:26;17.60;;;8.30;;
2326;SDS011;1174;51.588;7.328;2023-02-19T01:19:53;18.57;;;8.13;;
2326;SDS011;1174;51.588;7.328;2023-02-19T01:22:20;16.73;;;9.90;;
2326;SDS011;1174;51.588;7.328;2023-02-19T01:24:48;21.40;;;11.50;;
2326;SDS011;1174;51.588;7.328;2023-02-19T01:27:15;20.83;;;11.83;;
2326;SDS011;1174;51.588;7.328;2023-02-19T01:29:42;20.30;;;10.50;;
2326;SDS011;1174;51.588;7.328;2023-02-19T01:32:09;9.53;;;4.73;;
2326;SDS011;1174;51.588;7.328;2023-02-19T01:34:37;24.40;;;12.10;;
2326;SDS011;1174;51.588;7.328;2023-02-19T01:37:04;25.80;;;10.87;;
2326;SDS011;1174;51.588;7.328;2023-02-19T01:39:35;20.33;;;11.53;;
2326;SDS011;1174;51.588;7.328;2023-02-19T01:42:04;24.07;;;12.80;;
2326;SDS011;1174;51.588;7.328;2023-02-19T01:45:11;17.37;;;11.27;;
2326;SDS011;1174;51.588;7.328;2023-02-19T01:47:46;23.57;;;9.60;;
2326;SDS011;1174;51.588;7.328;2023-02-19T01:50:18;24.30;;;12.60;;
2326;SDS011;1174;51.588;7.328;2023-02-19T01:52:45;22.03;;;10.63;;
2326;SDS011;1174;51.588;7.328;2023-02-19T01:55:12;18.67;;;11.37;;
2326;SDS011;1174;51.588;7.328;2023-02-19T01:57:42;27.97;;;12.40;;
2326;SDS011;1174;51.588;7.328;2023-02-19T02:00:14;15.53;;;7.13;;
2326;SDS011;1174;51.588;7.328;2023-02-19T02:02:44;18.97;;;11.37;;
2326;SDS011;1174;51.588;7.328;2023-02-19T02:05:18;24.20;;;10.07;;
2326;SDS011;1174;51.588;7.328;2023-02-19T02:07:50;22.17;;;10.67;;
2326;SDS011;1174;51.588;7.328;2023-02-19T02:10:34;12.83;;;7.87;;
2326;SDS011;1174;51.588;7.328;2023-02-19T02:13:03;16.93;;;9.20;;
2326;SDS011;1174;51.588;7.328;2023-02-19T02:15:34;18.73;;;8.30;;
2326;SDS011;1174;51.588;7.328;2023-02-19T02:18:07;13.43;;;6.53;;
2326;SDS011;1174;51.588;7.328;2023-02-19T02:20:47;19.10;;;9.53;;
2326;SDS011;1174;51.588;7.328;2023-02-19T02:23:27;16.60;;;8.67;;
2326;SDS011;1174;51.588;7.328;2023-02-19T02:26:15;17.57;;;8.43;;
2326;SDS011;1174;51.588;7.328;2023-02-19T02:32:11;19.50;;;7.80;;
2326;SDS011;1174;51.588;7.328;2023-02-19T02:34:44;14.27;;;5.93;;
2326;SDS011;1174;51.588;7.328;2023-02-19T02:37:15;15.97;;;8.80;;
2326;SDS011;1174;51.588;7.328;2023-02-19T02:39:42;15.63;;;8.90;;
2326;SDS011;1174;51.588;7.328;2023-02-19T02:42:10;15.50;;;8.73;;
2326;SDS011;1174;51.588;7.328;2023-02-19T02:44:52;16.00;;;8.30;;
2326;SDS011;1174;51.588;7.328;2023-02-19T02:47:41;12.63;;;7.57;;
2326;SDS011;1174;51.588;7.328;2023-02-19T02:50:13;21.20;;;9.30;;
2326;SDS011;1174;51.588;7.328;2023-02-19T02:52:42;18.93;;;9.00;;
2326;SDS011;1174;51.588;7.328;2023-02-19T02:55:31;13.90;;;7.53;;
2326;SDS011;1174;51.588;7.328;2023-02-19T02:58:01;18.97;;;9.10;;
2326;SDS011;1174;51.588;7.328;2023-02-19T03:00:28;14.73;;;6.10;;
2326;SDS011;1174;51.588;7.328;2023-02-19T03:03:22;13.50;;;8.10;;
2326;SDS011;1174;51.588;7.328;2023-02-19T03:05:51;13.90;;;8.90;;
2326;SDS011;1174;51.588;7.328;2023-02-19T03:08:24;15.77;;;6.60;;
2326;SDS011;1174;51.588;7.328;2023-02-19T03:10:55;13.83;;;7.50;;
2326;SDS011;1174;51.588;7.328;2023-02-19T03:13:46;20.37;;;8.07;;
2326;SDS011;1174;51.588;7.328;2023-02-19T03:16:32;6.20;;;4.53;;
2326;SDS011;1174;51.588;7.328;2023-02-19T03:19:22;15.60;;;7.60;;
2326;SDS011;1174;51.588;7.328;2023-02-19T03:21:53;11.47;;;7.97;;
2326;SDS011;1174;51.588;7.328;2023-02-19T03:24:25;14.37;;;5.57;;
2326;SDS011;1174;51.588;7.328;2023-02-19T03:27:14;15.10;;;9.13;;
2326;SDS011;1174;51.588;7.328;2023-02-19T03:29:44;14.00;;;7.07;;
2326;SDS011;1174;51.588;7.328;2023-02-19T03:32:14;20.43;;;11.93;;
2326;SDS011;1174;51.588;7.328;2023-02-19T03:34:47;14.37;;;6.73;;
2326;SDS011;1174;51.588;7.328;2023-02-19T03:37:20;20.93;;;10.50;;
2326;SDS011;1174;51.588;7.328;2023-02-19T03:39:51;18.80;;;9.00;;
2326;SDS011;1174;51.588;7.328;2023-02-19T03:42:26;19.47;;;8.57;;
2326;SDS011;1174;51.588;7.328;2023-02-19T03:45:08;20.97;;;6.90;;
2326;SDS011;1174;51.588;7.328;2023-02-19T03:47:49;6.17;;;4.93;;
2326;SDS011;1174;51.588;7.328;2023-02-19T03:50:24;14.23;;;7.30;;
2326;SDS011;1174;51.588;7.328;2023-02-19T03:52:56;10.03;;;6.10;;
2326;SDS011;1174;51.588;7.328;2023-02-19T03:55:30;10.07;;;6.27;;
2326;SDS011;1174;51.588;7.328;2023-02-19T03:58:05;11.50;;;7.17;;
2326;SDS011;1174;51.588;7.328;2023-02-19T04:00:37;5.17;;;3.97;;
2326;SDS011;1174;51.588;7.328;2023-02-19T04:03:14;5.90;;;4.00;;
2326;SDS011;1174;51.588;7.328;2023-02-19T04:05:47;12.33;;;6.97;;
2326;SDS011;1174;51.588;7.328;2023-02-19T04:08:21;18.37;;;10.73;;
2326;SDS011;1174;51.588;7.328;2023-02-19T04:10:52;6.03;;;3.87;;
2326;SDS011;1174;51.588;7.328;2023-02-19T04:13:21;9.40;;;5.80;;
2326;SDS011;1174;51.588;7.328;2023-02-19T04:15:52;9.00;;;5.30;;
2326;SDS011;1174;51.588;7.328;2023-02-19T04:18:23;13.07;;;5.67;;
2326;SDS011;1174;51.588;7.328;2023-02-19T04:20:55;19.30;;;6.13;;
2326;SDS011;1174;51.588;7.328;2023-02-19T04:23:25;10.23;;;6.97;;
2326;SDS011;1174;51.588;7.328;2023-02-19T04:25:56;8.90;;;6.10;;
2326;SDS011;1174;51.588;7.328;2023-02-19T04:28:26;15.00;;;6.93;;
2326;SDS011;1174;51.588;7.328;2023-02-19T04:30:54;22.00;;;6.67;;
2326;SDS011;1174;51.588;7.328;2023-02-19T04:33:25;12.03;;;8.10;;
2326;SDS011;1174;51.588;7.328;2023-02-19T04:35:52;9.80;;;6.27;;
2326;SDS011;1174;51.588;7.328;2023-02-19T04:38:20;15.53;;;8.20;;
2326;SDS011;1174;51.588;7.328;2023-02-19T04:40:47;7.87;;;5.10;;
2326;SDS011;1174;51.588;7.328;2023-02-19T04:43:15;8.63;;;4.53;;
2326;SDS011;1174;51.588;7.328;2023-02-19T04:45:42;15.93;;;6.30;;
2326;SDS011;1174;51.588;7.328;2023-02-19T04:48:09;11.53;;;7.13;;
2326;SDS011;1174;51.588;7.328;2023-02-19T04:50:36;8.33;;;5.23;;
2326;SDS011;1174;51.588;7.328;2023-02-19T04:53:04;13.63;;;6.60;;
2326;SDS011;1174;51.588;7.328;2023-02-19T04:55:34;11.43;;;4.67;;
2326;SDS011;1174;51.588;7.328;2023-02-19T04:58:02;10.97;;;6.17;;
2326;SDS011;1174;51.588;7.328;2023-02-19T05:00:29;10.27;;;6.10;;
2326;SDS011;1174;51.588;7.328;2023-02-19T05:02:57;17.63;;;6.17;;
2326;SDS011;1174;51.588;7.328;2023-02-19T05:05:24;10.23;;;6.03;;
2326;SDS011;1174;51.588;7.328;2023-02-19T05:07:52;6.97;;;5.43;;
2326;SDS011;1174;51.588;7.328;2023-02-19T05:10:19;18.60;;;6.20;;
2326;SDS011;1174;51.588;7.328;2023-02-19T05:12:47;3.90;;;2.67;;
2326;SDS011;1174;51.588;7.328;2023-02-19T05:15:14;8.97;;;6.10;;
2326;SDS011;1174;51.588;7.328;2023-02-19T05:17:41;10.87;;;6.13;;
2326;SDS011;1174;51.588;7.328;2023-02-19T05:20:08;6.60;;;4.60;;
2326;SDS011;1174;51.588;7.328;2023-02-19T05:22:36;9.67;;;6.67;;
2326;SDS011;1174;51.588;7.328;2023-02-19T05:25:03;9.83;;;6.47;;
2326;SDS011;1174;51.588;7.328;2023-02-19T05:27:35;13.70;;;7.03;;
2326;SDS011;1174;51.588;7.328;2023-02-19T05:30:04;17.30;;;5.37;;
2326;SDS011;1174;51.588;7.328;2023-02-19T05:32:33;13.67;;;7.40;;
2326;SDS011;1174;51.588;7.328;2023-02-19T05:35:00;13.00;;;6.07;;
2326;SDS011;1174;51.588;7.328;2023-02-19T05:37:27;8.40;;;6.03;;
2326;SDS011;1174;51.588;7.328;2023-02-19T05:39:54;10.37;;;4.60;;
2326;SDS011;1174;51.588;7.328;2023-02-19T05:42:21;11.10;;;6.03;;
2326;SDS011;1174;51.588;7.328;2023-02-19T05:44:48;11.17;;;6.27;;
2326;SDS011;1174;51.588;7.328;2023-02-19T05:47:16;11.97;;;6.07;;
2326;SDS011;1174;51.588;7.328;2023-02-19T05:49:43;9.40;;;5.00;;
2326;SDS011;1174;51.588;7.328;2023-02-19T05:52:10;11.20;;;5.73;;
2326;SDS011;1174;51.588;7.328;2023-02-19T05:54:37;12.77;;;5.97;;
2326;SDS011;1174;51.588;7.328;2023-02-19T05:57:04;7.90;;;5.53;;
2326;SDS011;1174;51.588;7.328;2023-02-19T05:59:31;10.93;;;5.40;;
2326;SDS011;1174;51.588;7.328;2023-02-19T06:01:58;7.80;;;5.03;;
2326;SDS011;1174;51.588;7.328;2023-02-19T06:04:28;8.20;;;5.03;;
2326;SDS011;1174;51.588;7.328;2023-02-19T06:06:55;13.33;;;5.97;;
2326;SDS011;1174;51.588;7.328;2023-02-19T06:09:22;12.00;;;6.60;;
2326;SDS011;1174;51.588;7.328;2023-02-19T06:11:49;11.97;;;6.67;;
2326;SDS011;1174;51.588;7.328;2023-02-19T06:14:16;8.40;;;5.17;;
2326;SDS011;1174;51.588;7.328;2023-02-19T06:16:43;13.20;;;6.67;;
2326;SDS011;1174;51.588;7.328;2023-02-19T06:19:10;5.57;;;5.03;;
2326;SDS011;1174;51.588;7.328;2023-02-19T06:21:38;7.47;;;6.00;;
2326;SDS011;1174;51.588;7.328;2023-02-19T06:24:05;7.77;;;5.40;;
2326;SDS011;1174;51.588;7.328;2023-02-19T06:26:33;6.03;;;4.37;;
2326;SDS011;1174;51.588;7.328;2023-02-19T06:29:00;7.83;;;4.47;;
2326;SDS011;1174;51.588;7.328;2023-02-19T06:31:27;8.63;;;5.53;;
2326;SDS011;1174;51.588;7.328;2023-02-19T06:33:54;12.20;;;6.37;;
2326;SDS011;1174;51.588;7.328;2023-02-19T06:36:21;10.17;;;5.87;;
2326;SDS011;1174;51.588;7.328;2023-02-19T06:38:50;12.77;;;6.00;;
2326;SDS011;1174;51.588;7.328;2023-02-19T06:41:17;13.87;;;5.03;;
2326;SDS011;1174;51.588;7.328;2023-02-19T06:43:44;6.27;;;5.67;;
2326;SDS011;1174;51.588;7.328;2023-02-19T06:46:11;10.60;;;6.27;;
2326;SDS011;1174;51.588;7.328;2023-02-19T06:48:39;13.90;;;5.80;;
2326;SDS011;1174;51.588;7.328;2023-02-19T06:51:06;10.50;;;4.57;;
2326;SDS011;1174;51.588;7.328;2023-02-19T06:53:36;12.50;;;5.00;;
2326;SDS011;1174;51.588;7.328;2023-02-19T06:56:05;20.57;;;7.43;;
2326;SDS011;1174;51.588;7.328;2023-02-19T06:58:46;8.40;;;6.10;;
2326;SDS011;1174;51.588;7.328;2023-02-19T07:01:13;11.53;;;5.33;;
2326;SDS011;1174;51.588;7.328;2023-02-19T07:03:40;18.53;;;6.30;;
2326;SDS011;1174;51.588;7.328;2023-02-19T07:06:07;8.83;;;4.63;;
2326;SDS011;1174;51.588;7.328;2023-02-19T07:08:34;14.40;;;5.90;;
2326;SDS011;1174;51.588;7.328;2023-02-19T07:11:01;8.20;;;5.70;;
2326;SDS011;1174;51.588;7.328;2023-02-19T07:13:29;11.10;;;2.60;;
2326;SDS011;1174;51.588;7.328;2023-02-19T07:15:57;5.43;;;4.83;;
2326;SDS011;1174;51.588;7.328;2023-02-19T07:18:25;7.40;;;3.90;;
2326;SDS011;1174;51.588;7.328;2023-02-19T07:20:53;11.43;;;5.73;;
2326;SDS011;1174;51.588;7.328;2023-02-19T07:23:20;7.17;;;2.97;;
2326;SDS011;1174;51.588;7.328;2023-02-19T07:25:47;9.83;;;4.37;;
2326;SDS011;1174;51.588;7.328;2023-02-19T07:28:14;9.40;;;5.70;;
2326;SDS011;1174;51.588;7.328;2023-02-19T07:30:42;8.00;;;4.33;;
2326;SDS011;1174;51.588;7.328;2023-02-19T07:33:09;6.13;;;3.77;;
2326;SDS011;1174;51.588;7.328;2023-02-19T07:35:36;6.67;;;4.67;;
2326;SDS011;1174;51.588;7.328;2023-02-19T07:38:03;9.80;;;4.40;;
2326;SDS011;1174;51.588;7.328;2023-02-19T07:40:30;7.03;;;5.00;;
2326;SDS011;1174;51.588;7.328;2023-02-19T07:43:00;9.43;;;4.03;;
2326;SDS011;1174;51.588;7.328;2023-02-19T07:45:27;7.90;;;6.10;;
2326;SDS011;1174;51.588;7.328;2023-02-19T07:47:55;6.53;;;4.60;;
2326;SDS011;1174;51.588;7.328;2023-02-19T07:50:22;8.43;;;4.17;;
2326;SDS011;1174;51.588;7.328;2023-02-19T07:52:49;6.13;;;4.17;;
2326;SDS011;1174;51.588;7.328;2023-02-19T07:55:16;4.97;;;3.17;;
2326;SDS011;1174;51.588;7.328;2023-02-19T07:57:43;11.30;;;4.03;;
2326;SDS011;1174;51.588;7.328;2023-02-19T08:00:10;7.87;;;3.57;;
2326;SDS011;1174;51.588;7.328;2023-02-19T08:02:38;9.73;;;4.50;;
2326;SDS011;1174;51.588;7.328;2023-02-19T08:05:24;8.80;;;4.63;;
2326;SDS011;1174;51.588;7.328;2023-02-19T08:07:51;7.13;;;5.30;;
2326;SDS011;1174;51.588;7.328;2023-02-19T08:10:18;7.60;;;4.47;;
2326;SDS011;1174;51.588;7.328;2023-02-19T08:13:14;6.63;;;3.57;;
2326;SDS011;1174;51.588;7.328;2023-02-19T08:15:44;5.80;;;4.47;;
2326;SDS011;1174;51.588;7.328;2023-02-19T08:18:12;17.63;;;3.90;;
2326;SDS011;1174;51.588;7.328;2023-02-19T08:20:41;6.57;;;4.17;;
2326;SDS011;1174;51.588;7.328;2023-02-19T08:23:09;6.97;;;4.73;;
2326;SDS011;1174;51.588;7.328;2023-02-19T08:25:37;10.93;;;4.07;;
2326;SDS011;1174;51.588;7.328;2023-02-19T08:28:04;3.43;;;2.90;;
2326;SDS011;1174;51.588;7.328;2023-02-19T08:30:33;7.13;;;4.93;;
2326;SDS011;1174;51.588;7.328;2023-02-19T08:33:02;4.83;;;3.03;;
2326;SDS011;1174;51.588;7.328;2023-02-19T08:35:30;4.50;;;2.43;;
2326;SDS011;1174;51.588;7.328;2023-02-19T08:37:58;8.33;;;4.13;;
2326;SDS011;1174;51.588;7.328;2023-02-19T08:40:25;6.80;;;6.10;;
2326;SDS011;1174;51.588;7.328;2023-02-19T08:42:52;5.47;;;3.40;;
2326;SDS011;1174;51.588;7.328;2023-02-19T08:45:19;8.93;;;4.87;;
2326;SDS011;1174;51.588;7.328;2023-02-19T08:47:48;6.57;;;3.30;;
2326;SDS011;1174;51.588;7.328;2023-02-19T08:50:15;5.10;;;3.30;;
2326;SDS011;1174;51.588;7.328;2023-02-19T08:52:42;3.47;;;3.07;;
2326;SDS011;1174;51.588;7.328;2023-02-19T08:55:10;4.13;;;2.70;;
2326;SDS011;1174;51.588;7.328;2023-02-19T08:57:37;7.40;;;5.00;;
2326;SDS011;1174;51.588;7.328;2023-02-19T09:00:05;8.90;;;5.10;;
2326;SDS011;1174;51.588;7.328;2023-02-19T09:02:34;6.17;;;3.73;;
2326;SDS011;1174;51.588;7.328;2023-02-19T09:05:01;6.50;;;5.17;;
2326;SDS011;1174;51.588;7.328;2023-02-19T09:07:28;5.17;;;3.73;;
2326;SDS011;1174;51.588;7.328;2023-02-19T09:09:55;9.50;;;5.13;;
2326;SDS011;1174;51.588;7.328;2023-02-19T09:12:24;7.37;;;5.70;;
2326;SDS011;1174;51.588;7.328;2023-02-19T09:14:51;8.23;;;4.60;;
2326;SDS011;1174;51.588;7.328;2023-02-19T09:17:19;6.90;;;4.37;;
2326;SDS011;1174;51.588;7.328;2023-02-19T09:19:46;6.13;;;4.77;;
2326;SDS011;1174;51.588;7.328;2023-02-19T09:22:13;8.43;;;4.10;;
2326;SDS011;1174;51.588;7.328;2023-02-19T09:24:40;7.97;;;4.73;;
2326;SDS011;1174;51.588;7.328;2023-02-19T09:27:08;8.40;;;4.33;;
2326;SDS011;1174;51.588;7.328;2023-02-19T09:29:36;9.47;;;4.97;;
2326;SDS011;1174;51.588;7.328;2023-02-19T09:32:03;6.20;;;4.60;;
2326;SDS011;1174;51.588;7.328;2023-02-19T09:34:30;6.70;;;4.63;;
2326;SDS011;1174;51.588;7.328;2023-02-19T09:36:57;7.90;;;4.67;;
2326;SDS011;1174;51.588;7.328;2023-02-19T09:39:24;5.33;;;3.83;;
2326;SDS011;1174;51.588;7.328;2023-02-19T09:41:51;11.80;;;5.67;;
2326;SDS011;1174;51.588;7.328;2023-02-19T09:44:23;7.70;;;5.67;;
2326;SDS011;1174;51.588;7.328;2023-02-19T09:46:54;7.53;;;5.00;;
2326;SDS011;1174;51.588;7.328;2023-02-19T09:49:22;5.77;;;4.70;;
2326;SDS011;1174;51.588;7.328;2023-02-19T09:51:55;16.23;;;5.63;;
2326;SDS011;1174;51.588;7.328;2023-02-19T09:54:27;7.23;;;4.17;;
2326;SDS011;1174;51.588;7.328;2023-02-19T09:56:55;4.53;;;2.53;;
2326;SDS011;1174;51.588;7.328;2023-02-19T09:59:26;7.63;;;3.97;;
2326;SDS011;1174;51.588;7.328;2023-02-19T10:01:58;8.57;;;5.73;;
2326;SDS011;1174;51.588;7.328;2023-02-19T10:04:29;7.70;;;4.77;;
2326;SDS011;1174;51.588;7.328;2023-02-19T10:06:57;5.73;;;3.87;;
2326;SDS011;1174;51.588;7.328;2023-02-19T10:09:28;4.50;;;3.47;;
2326;SDS011;1174;51.588;7.328;2023-02-19T10:11:56;6.00;;;3.03;;
2326;SDS011;1174;51.588;7.328;2023-02-19T10:14:27;14.80;;;3.87;;
2326;SDS011;1174;51.588;7.328;2023-02-19T10:17:01;6.30;;;4.20;;
2326;SDS011;1174;51.588;7.328;2023-02-19T10:19:30;6.80;;;3.77;;
2326;SDS011;1174;51.588;7.328;2023-02-19T10:21:58;6.67;;;3.17;;
2326;SDS011;1174;51.588;7.328;2023-02-19T10:24:28;6.37;;;3.73;;
2326;SDS011;1174;51.588;7.328;2023-02-19T10:26:55;5.20;;;3.40;;
2326;SDS011;1174;51.588;7.328;2023-02-19T10:29:22;3.30;;;2.97;;
2326;SDS011;1174;51.588;7.328;2023-02-19T10:34:45;3.17;;;2.60;;
2326;SDS011;1174;51.588;7.328;2023-02-19T10:37:13;3.00;;;2.70;;
2326;SDS011;1174;51.588;7.328;2023-02-19T10:39:43;11.03;;;5.20;;
2326;SDS011;1174;51.588;7.328;2023-02-19T10:42:18;5.30;;;3.17;;
2326;SDS011;1174;51.588;7.328;2023-02-19T10:44:50;7.20;;;4.13;;
2326;SDS011;1174;51.588;7.328;2023-02-19T10:47:24;11.47;;;4.80;;
2326;SDS011;1174;51.588;7.328;2023-02-19T10:49:55;4.83;;;3.47;;
2326;SDS011;1174;51.588;7.328;2023-02-19T10:52:25;8.23;;;3.53;;
2326;SDS011;1174;51.588;7.328;2023-02-19T10:54:54;18.53;;;3.53;;
2326;SDS011;1174;51.588;7.328;2023-02-19T10:57:24;3.77;;;3.20;;
2326;SDS011;1174;51.588;7.328;2023-02-19T10:59:57;8.53;;;2.80;;
2326;SDS011;1174;51.588;7.328;2023-02-19T11:02:29;3.67;;;2.50;;
2326;SDS011;1174;51.588;7.328;2023-02-19T11:05:16;4.00;;;3.20;;
2326;SDS011;1174;51.588;7.328;2023-02-19T11:07:48;9.60;;;2.40;;
2326;SDS011;1174;51.588;7.328;2023-02-19T11:10:25;9.07;;;2.43;;
2326;SDS011;1174;51.588;7.328;2023-02-19T11:12:55;9.67;;;3.83;;
2326;SDS011;1174;51.588;7.328;2023-02-19T11:15:24;3.20;;;2.07;;
2326;SDS011;1174;51.588;7.328;2023-02-19T11:17:56;6.50;;;2.60;;
2326;SDS011;1174;51.588;7.328;2023-02-19T11:20:24;5.33;;;2.60;;
2326;SDS011;1174;51.588;7.328;2023-02-19T11:22:54;7.00;;;2.10;;
2326;SDS011;1174;51.588;7.328;2023-02-19T11:25:25;2.90;;;1.80;;
2326;SDS011;1174;51.588;7.328;2023-02-19T11:27:53;2.80;;;1.97;;
2326;SDS011;1174;51.588;7.328;2023-02-19T11:30:32;2.30;;;1.57;;
2326;SDS011;1174;51.588;7.328;2023-02-19T11:33:16;1.70;;;1.23;;
2326;SDS011;1174;51.588;7.328;2023-02-19T11:35:59;2.93;;;1.63;;
2326;SDS011;1174;51.588;7.328;2023-02-19T11:38:46;2.60;;;1.87;;
2326;SDS011;1174;51.588;7.328;2023-02-19T11:41:15;2.10;;;1.77;;
2326;SDS011;1174;51.588;7.328;2023-02-19T11:43:51;1.33;;;1.00;;
2326;SDS011;1174;51.588;7.328;2023-02-19T11:46:32;1.50;;;1.30;;
2326;SDS011;1174;51.588;7.328;2023-02-19T11:49:14;1.57;;;1.13;;
2326;SDS011;1174;51.588;7.328;2023-02-19T11:51:55;1.93;;;1.40;;
2326;SDS011;1174;51.588;7.328;2023-02-19T11:54:39;1.57;;;1.13;;
2326;SDS011;1174;51.588;7.328;2023-02-19T11:57:17;2.40;;;1.00;;
2326;SDS011;1174;51.588;7.328;2023-02-19T11:59:58;1.93;;;1.20;;
2326;SDS011;1174;51.588;7.328;2023-02-19T12:02:46;1.07;;;0.90;;
2326;SDS011;1174;51.588;7.328;2023-02-19T12:05:42;1.10;;;1.00;;
2326;SDS011;1174;51.588;7.328;2023-02-19T12:08:40;1.80;;;1.60;;
2326;SDS011;1174;51.588;7.328;2023-02-19T12:11:32;2.77;;;1.33;;
2326;SDS011;1174;51.588;7.328;2023-02-19T12:14:23;3.30;;;1.60;;
2326;SDS011;1174;51.588;7.328;2023-02-19T12:17:18;2.13;;;1.73;;
2326;SDS011;1174;51.588;7.328;2023-02-19T12:20:00;1.43;;;1.33;;
2326;SDS011;1174;51.588;7.328;2023-02-19T12:22:41;3.30;;;1.97;;
2326;SDS011;1174;51.588;7.328;2023-02-19T12:28:05;8.83;;;1.80;;
2326;SDS011;1174;51.588;7.328;2023-02-19T12:30:52;1.10;;;0.97;;
2326;SDS011;1174;51.588;7.328;2023-02-19T12:33:44;2.17;;;1.73;;
2326;SDS011;1174;51.588;7.328;2023-02-19T12:36:32;1.70;;;1.20;;
2326;SDS011;1174;51.588;7.328;2023-02-19T12:39:23;1.90;;;1.20;;
2326;SDS011;1174;51.588;7.328;2023-02-19T12:41:57;2.60;;;1.67;;
2326;SDS011;1174;51.588;7.328;2023-02-19T12:44:31;2.17;;;1.33;;
2326;SDS011;1174;51.588;7.328;2023-02-19T12:47:04;2.50;;;1.73;;
2326;SDS011;1174;51.588;7.328;2023-02-19T12:49:34;2.03;;;1.67;;
2326;SDS011;1174;51.588;7.328;2023-02-19T12:52:05;1.60;;;1.30;;
2326;SDS011;1174;51.588;7.328;2023-02-19T12:54:37;2.03;;;1.80;;
2326;SDS011;1174;51.588;7.328;2023-02-19T12:57:08;3.00;;;1.70;;
2326;SDS011;1174;51.588;7.328;2023-02-19T12:59:39;2.07;;;1.40;;
2326;SDS011;1174;51.588;7.328;2023-02-19T13:02:12;2.23;;;1.73;;
2326;SDS011;1174;51.588;7.328;2023-02-19T13:04:45;3.73;;;2.10;;
2326;SDS011;1174;51.588;7.328;2023-02-19T13:07:16;1.40;;;1.27;;
2326;SDS011;1174;51.588;7.328;2023-02-19T13:09:51;2.70;;;2.30;;
2326;SDS011;1174;51.588;7.328;2023-02-19T13:12:24;1.87;;;1.50;;
2326;SDS011;1174;51.588;7.328;2023-02-19T13:14:55;3.57;;;2.30;;
2326;SDS011;1174;51.588;7.328;2023-02-19T13:17:25;1.97;;;1.40;;
2326;SDS011;1174;51.588;7.328;2023-02-19T13:19:59;3.40;;;1.57;;
2326;SDS011;1174;51.588;7.328;2023-02-19T13:22:32;1.43;;;1.17;;
2326;SDS011;1174;51.588;7.328;2023-02-19T13:25:30;1.43;;;1.33;;
2326;SDS011;1174;51.588;7.328;2023-02-19T13:28:17;2.60;;;2.00;;
2326;SDS011;1174;51.588;7.328;2023-02-19T13:31:01;3.00;;;1.43;;
2326;SDS011;1174;51.588;7.328;2023-02-19T13:33:42;2.87;;;2.13;;
2326;SDS011;1174;51.588;7.328;2023-02-19T13:36:19;4.00;;;3.10;;
2326;SDS011;1174;51.588;7.328;2023-02-19T13:38:51;2.20;;;1.70;;
2326;SDS011;1174;51.588;7.328;2023-02-19T13:41:27;3.93;;;2.33;;
2326;SDS011;1174;51.588;7.328;2023-02-19T13:43:57;2.67;;;2.30;;
2326;SDS011;1174;51.588;7.328;2023-02-19T13:46:35;2.93;;;2.20;;
2326;SDS011;1174;51.588;7.328;2023-02-19T14:01:05;2.70;;;2.47;;
2326;SDS011;1174;51.588;7.328;2023-02-19T14:03:44;2.60;;;2.40;;
2326;SDS011;1174;51.588;7.328;2023-02-19T14:06:15;3.73;;;2.53;;
2326;SDS011;1174;51.588;7.328;2023-02-19T14:08:45;5.83;;;2.93;;
2326;SDS011;1174;51.588;7.328;2023-02-19T14:14:27;3.00;;;2.70;;
2326;SDS011;1174;51.588;7.328;2023-02-19T14:17:01;4.03;;;3.10;;
2326;SDS011;1174;51.588;7.328;2023-02-19T14:19:50;3.30;;;2.67;;
2326;SDS011;1174;51.588;7.328;2023-02-19T14:25:34;3.70;;;2.27;;
2326;SDS011;1174;51.588;7.328;2023-02-19T14:28:18;5.83;;;3.80;;
2326;SDS011;1174;51.588;7.328;2023-02-19T14:30:50;4.93;;;2.97;;
2326;SDS011;1174;51.588;7.328;2023-02-19T14:33:21;5.73;;;3.50;;
2326;SDS011;1174;51.588;7.328;2023-02-19T14:35:51;6.70;;;4.13;;
2326;SDS011;1174;51.588;7.328;2023-02-19T14:38:21;8.70;;;4.13;;
2326;SDS011;1174;51.588;7.328;2023-02-19T14:40:51;6.60;;;4.17;;
2326;SDS011;1174;51.588;7.328;2023-02-19T14:43:20;5.33;;;3.67;;
2326;SDS011;1174;51.588;7.328;2023-02-19T14:45:51;5.97;;;4.33;;
2326;SDS011;1174;51.588;7.328;2023-02-19T14:48:21;7.10;;;5.33;;
2326;SDS011;1174;51.588;7.328;2023-02-19T14:50:56;8.83;;;4.60;;
2326;SDS011;1174;51.588;7.328;2023-02-19T14:53:35;6.63;;;4.93;;
2326;SDS011;1174;51.588;7.328;2023-02-19T14:56:04;6.23;;;3.77;;
2326;SDS011;1174;51.588;7.328;2023-02-19T14:58:42;4.43;;;3.00;;
2326;SDS011;1174;51.588;7.328;2023-02-19T15:01:27;7.13;;;3.77;;
2326;SDS011;1174;51.588;7.328;2023-02-19T15:03:54;6.60;;;5.23;;
2326;SDS011;1174;51.588;7.328;2023-02-19T15:06:22;8.50;;;4.20;;
2326;SDS011;1174;51.588;7.328;2023-02-19T15:08:50;4.87;;;3.80;;
2326;SDS011;1174;51.588;7.328;2023-02-19T15:11:20;4.93;;;3.43;;
2326;SDS011;1174;51.588;7.328;2023-02-19T15:13:50;4.80;;;3.37;;
2326;SDS011;1174;51.588;7.328;2023-02-19T15:16:21;7.13;;;2.87;;
2326;SDS011;1174;51.588;7.328;2023-02-19T15:18:52;5.30;;;2.97;;
2326;SDS011;1174;51.588;7.328;2023-02-19T15:21:22;6.43;;;3.20;;
2326;SDS011;1174;51.588;7.328;2023-02-19T15:23:52;10.50;;;5.80;;
2326;SDS011;1174;51.588;7.328;2023-02-19T15:26:21;4.20;;;2.67;;
2326;SDS011;1174;51.588;7.328;2023-02-19T15:28:56;5.67;;;3.20;;
2326;SDS011;1174;51.588;7.328;2023-02-19T15:31:24;6.87;;;3.20;;
2326;SDS011;1174;51.588;7.328;2023-02-19T15:33:52;3.70;;;2.93;;
2326;SDS011;1174;51.588;7.328;2023-02-19T15:36:24;2.77;;;2.53;;
2326;SDS011;1174;51.588;7.328;2023-02-19T15:38:54;2.40;;;2.07;;
2326;SDS011;1174;51.588;7.328;2023-02-19T15:41:25;4.13;;;2.70;;
2326;SDS011;1174;51.588;7.328;2023-02-19T15:43:55;3.27;;;2.50;;
2326;SDS011;1174;51.588;7.328;2023-02-19T15:46:30;3.73;;;3.20;;
2326;SDS011;1174;51.588;7.328;2023-02-19T15:49:02;4.60;;;2.57;;
2326;SDS011;1174;51.588;7.328;2023-02-19T15:51:36;3.40;;;2.53;;
2326;SDS011;1174;51.588;7.328;2023-02-19T15:54:12;2.60;;;2.07;;
2326;SDS011;1174;51.588;7.328;2023-02-19T15:56:42;5.27;;;2.97;;
2326;SDS011;1174;51.588;7.328;2023-02-19T15:59:14;4.10;;;2.97;;
2326;SDS011;1174;51.588;7.328;2023-02-19T16:01:45;6.10;;;3.43;;